createdAt,value
2018-08-10T00:00:10.404Z,99.90
2018-08-10T00:02:41.152Z,99.90
2018-08-10T00:05:12.542Z,99.90
2018-08-10T00:07:43.500Z,99.90
2018-08-10T00:10:15.629Z,99.90
2018-08-10T00:12:46.229Z,99.90
2018-08-10T00:15:16.842Z,99.90
2018-08-10T00:17:47.507Z,99.90
2018-08-10T00:20:18.123Z,99.90
2018-08-10T00:22:48.668Z,99.90
2018-08-10T00:25:19.838Z,99.90
2018-08-10T00:27:50.337Z,99.90
2018-08-10T00:30:21.216Z,99.90
2018-08-10T00:32:52.551Z,99.90
2018-08-10T00:35:23.640Z,99.90
2018-08-10T00:37:54.327Z,99.90
2018-08-10T00:40:25.313Z,99.90
2018-08-10T00:42:55.976Z,99.90
2018-08-10T00:45:26.519Z,99.90
2018-08-10T00:47:57.312Z,99.90
2018-08-10T00:50:28.511Z,99.90
2018-08-10T00:52:58.970Z,99.90
2018-08-10T00:55:30.540Z,99.90
2018-08-10T00:58:01.052Z,99.90
2018-08-10T01:00:32.712Z,99.90
2018-08-10T01:03:03.942Z,99.90
2018-08-10T01:05:34.442Z,99.90
2018-08-10T01:08:05.188Z,99.90
2018-08-10T01:10:36.403Z,99.90
2018-08-10T01:13:07.774Z,99.90
2018-08-10T01:15:38.474Z,99.90
2018-08-10T01:18:09.040Z,99.90
2018-08-10T01:20:40.225Z,99.90
2018-08-10T01:23:11.790Z,99.90
2018-08-10T01:25:42.980Z,99.90
2018-08-10T01:28:14.022Z,99.90
2018-08-10T01:30:44.797Z,99.90
2018-08-10T01:33:15.312Z,99.90
2018-08-10T01:35:46.910Z,99.90
2018-08-10T01:38:17.823Z,99.90
2018-08-10T01:40:48.325Z,99.90
2018-08-10T01:43:18.826Z,99.90
2018-08-10T01:45:49.463Z,99.90
2018-08-10T01:48:20.069Z,99.90
2018-08-10T01:50:51.495Z,99.90
2018-08-10T01:53:21.965Z,99.90
2018-08-10T01:55:52.884Z,99.90
2018-08-10T01:58:23.602Z,99.90
2018-08-10T02:00:54.097Z,99.90
2018-08-10T02:03:24.642Z,99.90
2018-08-10T02:05:56.143Z,99.90
2018-08-10T02:08:27.017Z,99.90
2018-08-10T02:10:57.938Z,99.90
2018-08-10T02:13:28.532Z,99.90
2018-08-10T02:15:59.053Z,99.90
2018-08-10T02:18:29.902Z,99.90
2018-08-10T02:21:01.401Z,99.90
2018-08-10T02:23:31.862Z,99.90
2018-08-10T02:26:02.481Z,99.90
2018-08-10T02:28:33.029Z,99.90
2018-08-10T02:31:03.511Z,99.90
2018-08-10T02:33:33.989Z,99.90
2018-08-10T02:36:04.492Z,99.90
2018-08-10T02:38:35.623Z,99.90
2018-08-10T02:41:06.199Z,99.90
2018-08-10T02:43:36.782Z,99.90
2018-08-10T02:46:07.845Z,99.90
2018-08-10T02:48:38.480Z,99.90
2018-08-10T02:51:08.966Z,99.90
2018-08-10T02:53:39.297Z,99.90
2018-08-10T02:56:09.667Z,99.90
2018-08-10T02:58:41.432Z,99.90
2018-08-10T03:01:12.075Z,99.90
2018-08-10T03:03:43.252Z,99.90
2018-08-10T03:06:13.935Z,99.90
2018-08-10T03:08:44.614Z,99.90
2018-08-10T03:11:15.253Z,99.90
2018-08-10T03:13:46.037Z,99.90
2018-08-10T03:16:16.674Z,99.90
2018-08-10T03:18:47.288Z,99.90
2018-08-10T03:21:17.965Z,99.90
2018-08-10T03:23:48.410Z,99.90
2018-08-10T03:26:19.012Z,99.90
2018-08-10T03:28:49.596Z,99.90
2018-08-10T03:31:20.203Z,99.90
2018-08-10T03:33:50.944Z,99.90
2018-08-10T03:36:21.322Z,99.90
2018-08-10T03:38:51.905Z,99.90
2018-08-10T03:41:22.663Z,99.90
2018-08-10T03:43:53.422Z,99.90
2018-08-10T03:46:24.034Z,99.90
2018-08-10T03:48:55.296Z,99.90
2018-08-10T03:51:25.882Z,99.90
2018-08-10T03:53:56.419Z,99.90
2018-08-10T03:56:27.346Z,99.90
2018-08-10T03:58:58.047Z,99.90
2018-08-10T04:01:29.129Z,99.90
2018-08-10T04:03:59.604Z,99.90
2018-08-10T04:06:30.868Z,99.90
2018-08-10T04:09:01.763Z,99.90
2018-08-10T04:11:32.467Z,99.90
2018-08-10T04:14:03.138Z,99.90
2018-08-10T04:16:33.690Z,99.90
2018-08-10T04:19:04.112Z,99.90
2018-08-10T04:21:35.384Z,99.90
2018-08-10T04:24:06.594Z,99.90
2018-08-10T04:26:37.190Z,99.90
2018-08-10T04:29:07.835Z,99.90
2018-08-10T04:31:38.542Z,99.90
2018-08-10T04:34:09.030Z,99.90
2018-08-10T04:36:39.791Z,99.90
2018-08-10T04:39:13.902Z,99.90
2018-08-10T04:41:45.568Z,99.90
2018-08-10T04:44:16.097Z,99.90
2018-08-10T04:46:46.455Z,99.90
2018-08-10T04:49:16.888Z,99.90
2018-08-10T04:51:48.200Z,99.90
2018-08-10T04:54:19.683Z,99.90
2018-08-10T04:56:50.214Z,99.90
2018-08-10T04:59:21.371Z,99.90
2018-08-10T05:01:51.962Z,99.90
2018-08-10T05:04:22.593Z,99.90
2018-08-10T05:06:53.061Z,99.90
2018-08-10T05:09:24.514Z,99.90
2018-08-10T05:11:55.144Z,99.90
2018-08-10T05:14:25.870Z,99.90
2018-08-10T05:16:56.458Z,99.90
2018-08-10T05:19:27.069Z,99.90
2018-08-10T05:21:58.898Z,99.90
2018-08-10T05:24:29.529Z,99.90
2018-08-10T05:27:00.087Z,99.90
2018-08-10T05:29:30.571Z,99.90
2018-08-10T05:32:01.202Z,99.90
2018-08-10T05:34:32.065Z,99.90
2018-08-10T05:37:02.652Z,99.90
2018-08-10T05:39:34.989Z,99.90
2018-08-10T05:42:05.803Z,99.90
2018-08-10T05:44:36.510Z,99.90
2018-08-10T05:47:07.148Z,99.90
2018-08-10T05:49:38.218Z,99.90
2018-08-10T05:52:09.793Z,99.90
2018-08-10T05:54:40.645Z,99.90
2018-08-10T05:57:11.314Z,99.90
2018-08-10T05:59:43.483Z,99.90
2018-08-10T06:02:15.872Z,99.90
2018-08-10T06:04:46.729Z,99.90
2018-08-10T06:07:17.455Z,99.90
2018-08-10T06:09:48.743Z,99.90
2018-08-10T06:12:19.618Z,99.90
2018-08-10T06:14:50.485Z,99.90
2018-08-10T06:17:21.716Z,99.90
2018-08-10T06:19:53.321Z,99.90
2018-08-10T06:22:24.390Z,99.90
2018-08-10T06:24:55.466Z,99.90
2018-08-10T06:27:26.272Z,99.90
2018-08-10T06:29:57.057Z,99.90
2018-08-10T06:32:28.124Z,99.90
2018-08-10T06:34:59.232Z,99.90
2018-08-10T06:37:31.652Z,99.90
2018-08-10T06:40:02.831Z,99.90
2018-08-10T06:42:33.466Z,99.90
2018-08-10T06:45:04.368Z,99.90
2018-08-10T06:47:35.887Z,99.90
2018-08-10T06:50:09.430Z,99.90
2018-08-10T06:52:40.083Z,99.90
2018-08-10T06:55:12.556Z,99.90
2018-08-10T06:57:44.378Z,99.90
2018-08-10T07:00:16.264Z,99.90
2018-08-10T07:02:47.157Z,99.90
2018-08-10T07:05:20.348Z,99.90
2018-08-10T07:07:53.595Z,99.90
2018-08-10T07:10:28.241Z,99.90
2018-08-10T07:12:59.432Z,99.90
2018-08-10T07:15:38.506Z,99.90
2018-08-10T07:18:45.364Z,99.90
2018-08-10T07:21:17.323Z,99.90
2018-08-10T07:23:50.602Z,99.90
2018-08-10T07:29:25.164Z,99.90
2018-08-10T07:31:57.024Z,99.90
2018-08-10T07:34:30.120Z,99.90
2018-08-10T07:37:02.063Z,99.90
2018-08-10T07:39:33.154Z,99.90
2018-08-10T07:42:08.084Z,99.90
2018-08-10T07:44:38.998Z,99.90
2018-08-10T07:47:10.715Z,99.90
2018-08-10T07:49:42.915Z,99.90
2018-08-10T07:52:14.346Z,99.90
2018-08-10T07:54:45.144Z,99.90
2018-08-10T07:57:16.037Z,99.90
2018-08-10T07:59:46.930Z,99.90
2018-08-10T08:02:17.858Z,99.90
2018-08-10T08:04:49.385Z,99.90
2018-08-10T08:07:22.356Z,99.90
2018-08-10T08:09:53.253Z,99.90
2018-08-10T08:12:24.016Z,99.90
2018-08-10T08:14:55.108Z,99.90
2018-08-10T08:17:26.493Z,99.90
2018-08-10T08:19:58.190Z,99.10
2018-08-10T08:22:30.268Z,98.30
2018-08-10T08:25:02.687Z,98.00
2018-08-10T08:27:33.566Z,97.70
2018-08-10T08:30:04.567Z,97.50
2018-08-10T08:32:35.661Z,97.60
2018-08-10T08:35:06.967Z,96.80
2018-08-10T08:37:37.781Z,96.40
2018-08-10T08:40:21.095Z,96.50
2018-08-10T08:42:52.458Z,96.30
2018-08-10T08:46:26.752Z,95.30
2018-08-10T08:48:57.361Z,95.30
2018-08-10T08:51:28.120Z,94.50
2018-08-10T08:54:15.733Z,93.90
2018-08-10T08:56:47.780Z,93.40
2018-08-10T08:59:18.410Z,91.50
2018-08-10T09:01:49.724Z,91.00
2018-08-10T09:05:23.229Z,89.60
2018-08-10T09:07:54.127Z,88.80
2018-08-10T09:10:24.913Z,84.40
2018-08-10T09:12:56.285Z,82.10
2018-08-10T09:15:27.170Z,80.60
2018-08-10T09:17:58.498Z,79.50
2018-08-10T09:20:31.544Z,80.10
2018-08-10T09:23:02.410Z,75.90
2018-08-10T09:25:33.608Z,75.80
2018-08-10T09:28:04.589Z,75.10
2018-08-10T09:30:35.765Z,73.90
2018-08-10T09:33:06.517Z,73.20
2018-08-10T09:35:38.169Z,67.70
2018-08-10T09:38:09.519Z,69.60
2018-08-10T09:40:42.768Z,71.00
2018-08-10T09:43:13.929Z,71.90
2018-08-10T09:45:44.869Z,72.70
2018-08-10T09:48:15.677Z,72.60
2018-08-10T09:50:46.432Z,70.30
2018-08-10T09:53:17.952Z,70.00
2018-08-10T09:55:49.742Z,68.30
2018-08-10T09:58:24.430Z,67.10
2018-08-10T10:00:55.393Z,66.60
2018-08-10T10:03:27.367Z,67.60
2018-08-10T10:06:00.017Z,66.70
2018-08-10T10:08:30.998Z,66.40
2018-08-10T10:11:02.785Z,65.30
2018-08-10T10:13:34.694Z,63.30
2018-08-10T10:16:05.648Z,62.90
2018-08-10T10:18:36.494Z,63.50
2018-08-10T10:21:07.483Z,64.80
2018-08-10T10:23:38.293Z,64.80
2018-08-10T10:26:09.175Z,65.40
2018-08-10T10:28:40.139Z,64.30
2018-08-10T10:31:11.764Z,61.10
2018-08-10T10:33:44.310Z,62.90
2018-08-10T10:36:15.512Z,60.60
2018-08-10T10:38:47.519Z,60.60
2018-08-10T10:41:19.976Z,61.40
2018-08-10T10:43:51.059Z,60.40
2018-08-10T10:46:21.854Z,59.50
2018-08-10T10:48:53.786Z,58.20
2018-08-10T10:51:34.637Z,58.90
2018-08-10T10:54:06.214Z,58.70
2018-08-10T10:56:37.362Z,58.70
2018-08-10T10:59:08.437Z,59.00
2018-08-10T11:01:39.762Z,58.50
2018-08-10T11:04:10.920Z,57.70
2018-08-10T11:06:42.112Z,57.70
2018-08-10T11:09:13.228Z,59.50
2018-08-10T11:11:46.741Z,58.70
2018-08-10T11:14:17.570Z,59.00
2018-08-10T11:16:49.005Z,59.70
2018-08-10T11:19:20.596Z,58.60
2018-08-10T11:21:52.331Z,57.60
2018-08-10T11:24:23.883Z,57.00
2018-08-10T11:26:55.227Z,56.60
2018-08-10T11:29:31.436Z,56.60
2018-08-10T11:32:03.761Z,55.40
2018-08-10T11:34:36.064Z,54.70
2018-08-10T11:37:07.460Z,53.70
2018-08-10T11:39:39.602Z,52.00
2018-08-10T11:42:12.750Z,50.90
2018-08-10T11:44:44.717Z,50.30
2018-08-10T11:47:17.415Z,49.80
2018-08-10T11:49:50.253Z,49.50
2018-08-10T11:52:20.902Z,50.40
2018-08-10T11:54:51.609Z,50.30
2018-08-10T11:57:22.777Z,49.60
2018-08-10T11:59:53.836Z,50.00
2018-08-10T12:02:25.633Z,49.10
2018-08-10T12:04:57.709Z,49.60
2018-08-10T12:07:30.116Z,50.20
2018-08-10T12:10:01.310Z,51.00
2018-08-10T12:12:32.162Z,51.10
2018-08-10T12:15:04.634Z,50.90
2018-08-10T12:17:35.900Z,50.50
2018-08-10T12:20:06.995Z,50.80
2018-08-10T12:22:37.948Z,50.40
2018-08-10T12:25:10.996Z,49.90
2018-08-10T12:27:42.537Z,50.00
2018-08-10T12:30:14.795Z,49.80
2018-08-10T12:32:46.151Z,50.70
2018-08-10T12:35:17.911Z,51.90
2018-08-10T12:37:48.811Z,53.50
2018-08-10T12:40:20.518Z,54.60
2018-08-10T12:42:51.353Z,56.80
2018-08-10T12:45:25.089Z,58.40
2018-08-10T12:47:55.920Z,58.20
2018-08-10T12:50:27.152Z,58.60
2018-08-10T12:52:57.825Z,60.90
2018-08-10T12:55:29.139Z,62.20
2018-08-10T12:58:00.480Z,65.10
2018-08-10T13:00:31.488Z,66.30
2018-08-10T13:03:02.375Z,68.00
2018-08-10T13:05:33.845Z,68.60
2018-08-10T13:08:05.461Z,69.60
2018-08-10T13:10:36.312Z,69.90
2018-08-10T13:13:08.624Z,68.50
2018-08-10T13:15:39.431Z,69.30
2018-08-10T13:18:11.338Z,70.80
2018-08-10T13:20:46.099Z,71.50
2018-08-10T13:23:19.523Z,72.80
2018-08-10T13:25:51.153Z,73.20
2018-08-10T13:28:22.281Z,73.50
2018-08-10T13:30:53.350Z,75.00
2018-08-10T13:33:25.067Z,76.20
2018-08-10T13:35:57.071Z,75.50
2018-08-10T13:38:31.341Z,73.50
2018-08-10T13:41:02.475Z,71.20
2018-08-10T13:43:34.314Z,70.50
2018-08-10T13:46:07.279Z,70.10
2018-08-10T13:48:39.349Z,69.20
2018-08-10T13:51:12.903Z,68.90
2018-08-10T13:53:44.889Z,67.60
2018-08-10T13:56:16.277Z,63.60
2018-08-10T13:58:48.427Z,64.50
2018-08-10T14:01:19.680Z,64.70
2018-08-10T14:03:52.061Z,64.30
2018-08-10T14:06:25.611Z,64.40
2018-08-10T14:08:57.408Z,62.00
2018-08-10T14:11:29.771Z,61.40
2018-08-10T14:14:01.375Z,60.30
2018-08-10T14:16:32.864Z,59.80
2018-08-10T14:19:03.619Z,62.10
2018-08-10T14:21:35.580Z,63.40
2018-08-10T14:24:08.679Z,64.30
2018-08-10T14:26:39.519Z,63.00
2018-08-10T14:29:11.074Z,62.50
2018-08-10T14:31:41.927Z,63.30
2018-08-10T14:34:13.209Z,63.80
2018-08-10T14:36:45.215Z,65.40
2018-08-10T14:39:19.025Z,64.70
2018-08-10T14:41:50.036Z,66.70
2018-08-10T14:44:21.394Z,66.40
2018-08-10T14:46:53.698Z,65.70
2018-08-10T14:49:25.173Z,64.10
2018-08-10T14:52:01.629Z,62.10
2018-08-10T14:54:36.214Z,63.80
2018-08-10T14:57:08.791Z,62.00
2018-08-10T14:59:42.328Z,61.50
2018-08-10T15:02:13.611Z,61.60
2018-08-10T15:04:46.764Z,60.80
2018-08-10T15:07:19.011Z,60.60
2018-08-10T15:09:51.018Z,59.90
2018-08-10T15:12:22.294Z,60.60
2018-08-10T15:14:53.432Z,59.90
2018-08-10T15:17:24.992Z,60.50
2018-08-10T15:19:57.993Z,61.50
2018-08-10T15:22:29.175Z,62.20
2018-08-10T15:25:00.480Z,63.90
2018-08-10T15:27:31.385Z,64.40
2018-08-10T15:30:03.758Z,64.20
2018-08-10T15:32:34.455Z,62.10
2018-08-10T15:35:06.368Z,63.00
2018-08-10T15:37:37.611Z,60.70
2018-08-10T15:40:11.280Z,61.70
2018-08-10T15:42:43.346Z,63.00
2018-08-10T15:45:15.441Z,62.90
2018-08-10T15:47:47.003Z,61.30
2018-08-10T15:50:19.116Z,62.50
2018-08-10T15:52:50.157Z,63.90
2018-08-10T15:55:21.229Z,63.90
2018-08-10T15:57:52.323Z,64.50
2018-08-10T16:00:25.904Z,65.30
2018-08-10T16:02:57.441Z,66.30
2018-08-10T16:05:29.419Z,65.60
2018-08-10T16:08:02.098Z,66.10
2018-08-10T16:10:34.249Z,65.60
2018-08-10T16:13:05.637Z,65.70
2018-08-10T16:15:38.513Z,66.30
2018-08-10T16:18:10.513Z,67.40
2018-08-10T16:20:42.067Z,68.50
2018-08-10T16:23:13.318Z,68.30
2018-08-10T16:25:45.054Z,68.80
2018-08-10T16:28:17.784Z,67.70
2018-08-10T16:30:48.864Z,67.60
2018-08-10T16:33:21.285Z,67.50
2018-08-10T16:35:51.859Z,66.80
2018-08-10T16:38:22.935Z,67.30
2018-08-10T16:40:54.338Z,67.50
2018-08-10T16:43:26.183Z,68.50
2018-08-10T16:45:57.028Z,67.60
2018-08-10T16:48:27.720Z,66.30
2018-08-10T16:50:58.331Z,65.90
2018-08-10T16:53:28.978Z,66.90
2018-08-10T16:56:01.157Z,67.00
2018-08-10T16:58:33.205Z,67.50
2018-08-10T17:01:04.604Z,68.20
2018-08-10T17:03:35.228Z,68.40
2018-08-10T17:06:06.284Z,69.00
2018-08-10T17:08:36.998Z,69.00
2018-08-10T17:11:07.827Z,68.70
2018-08-10T17:13:39.399Z,68.90
2018-08-10T17:16:16.558Z,69.10
2018-08-10T17:18:48.415Z,68.00
2018-08-10T17:21:19.971Z,68.20
2018-08-10T17:23:51.663Z,68.70
2018-08-10T17:26:22.656Z,69.10
2018-08-10T17:28:54.100Z,68.80
2018-08-10T17:31:25.933Z,69.70
2018-08-10T17:33:57.377Z,69.20
2018-08-10T17:36:29.700Z,70.00
2018-08-10T17:39:00.397Z,70.20
2018-08-10T17:41:31.455Z,70.40
2018-08-10T17:44:02.970Z,70.90
2018-08-10T17:46:34.775Z,71.40
2018-08-10T17:49:06.211Z,72.10
2018-08-10T17:51:36.907Z,72.60
2018-08-10T17:54:08.443Z,73.20
2018-08-10T17:56:39.849Z,73.20
2018-08-10T17:59:10.983Z,73.40
2018-08-10T18:01:41.929Z,73.70
2018-08-10T18:04:13.132Z,73.80
2018-08-10T18:06:44.269Z,74.10
2018-08-10T18:09:15.607Z,74.20
2018-08-10T18:11:47.194Z,75.10
2018-08-10T18:14:19.562Z,75.30
2018-08-10T18:16:50.942Z,75.40
2018-08-10T18:19:22.704Z,75.60
2018-08-10T18:21:53.668Z,76.50
2018-08-10T18:24:25.698Z,76.10
2018-08-10T18:26:57.230Z,76.00
2018-08-10T18:29:28.184Z,75.90
2018-08-10T18:32:00.580Z,76.40
2018-08-10T18:34:31.462Z,77.70
2018-08-10T18:37:02.329Z,79.00
2018-08-10T18:39:34.014Z,79.80
2018-08-10T18:42:06.220Z,80.30
2018-08-10T18:44:38.029Z,83.00
2018-08-10T18:47:10.453Z,83.90
2018-08-10T18:49:42.381Z,84.80
2018-08-10T18:52:14.186Z,86.20
2018-08-10T18:54:45.672Z,86.90
2018-08-10T18:57:17.790Z,87.10
2018-08-10T18:59:49.536Z,87.70
2018-08-10T19:02:22.307Z,88.00
2018-08-10T19:04:54.877Z,88.80
2018-08-10T19:07:26.326Z,89.50
2018-08-10T19:10:00.353Z,89.50
2018-08-10T19:12:34.487Z,90.40
2018-08-10T19:15:07.231Z,90.70
2018-08-10T19:17:40.179Z,91.00
2018-08-10T19:20:13.387Z,91.20
2018-08-10T19:22:45.568Z,91.50
2018-08-10T19:25:17.826Z,91.90
2018-08-10T19:27:50.196Z,91.90
2018-08-10T19:30:24.710Z,92.60
2018-08-10T19:32:56.658Z,92.50
2018-08-10T19:35:28.841Z,92.80
2018-08-10T19:38:00.480Z,93.30
2018-08-10T19:40:32.320Z,93.70
2018-08-10T19:43:03.768Z,94.00
2018-08-10T19:45:35.758Z,94.30
2018-08-10T19:48:08.373Z,94.20
2018-08-10T19:50:41.665Z,94.40
2018-08-10T19:53:13.945Z,94.70
2018-08-10T19:55:46.318Z,94.90
2018-08-10T19:58:17.974Z,95.10
2018-08-10T20:00:49.654Z,95.00
2018-08-10T20:03:21.774Z,94.90
2018-08-10T20:05:53.527Z,95.20
2018-08-10T20:08:25.707Z,95.20
2018-08-10T20:10:57.666Z,95.50
2018-08-10T20:13:29.538Z,96.20
2018-08-10T20:16:01.623Z,96.50
2018-08-10T20:18:34.719Z,96.80
2018-08-10T20:21:10.942Z,97.10
2018-08-10T20:23:43.321Z,97.30
2018-08-10T20:26:15.668Z,97.20
2018-08-10T20:28:47.550Z,97.10
2018-08-10T20:31:20.013Z,97.20
2018-08-10T20:33:51.974Z,97.60
2018-08-10T20:36:26.404Z,97.70
2018-08-10T20:38:57.663Z,98.00
2018-08-10T20:41:29.369Z,98.30
2018-08-10T20:44:02.732Z,99.00
2018-08-10T20:46:34.488Z,98.90
2018-08-10T20:49:06.527Z,99.10
2018-08-10T20:51:39.345Z,99.70
2018-08-10T20:54:11.046Z,99.90
2018-08-10T20:56:42.831Z,99.90
2018-08-10T20:59:14.463Z,99.90
2018-08-10T21:01:46.297Z,99.90
2018-08-10T21:04:17.397Z,99.90
2018-08-10T21:06:48.512Z,99.90
2018-08-10T21:09:19.252Z,99.90
2018-08-10T21:11:50.206Z,99.90
2018-08-10T21:14:21.032Z,99.90
2018-08-10T21:16:51.745Z,99.90
2018-08-10T21:19:22.658Z,99.90
2018-08-10T21:21:53.430Z,99.90
2018-08-10T21:24:23.999Z,99.90
2018-08-10T21:26:56.652Z,99.90
2018-08-10T21:29:27.283Z,99.90
2018-08-10T21:31:57.847Z,99.90
2018-08-10T21:34:29.033Z,99.90
2018-08-10T21:37:00.295Z,99.90
2018-08-10T21:39:31.244Z,99.90
2018-08-10T21:42:01.818Z,99.90
2018-08-10T21:44:32.465Z,99.90
2018-08-10T21:47:03.193Z,99.90
2018-08-10T21:49:33.746Z,99.90
2018-08-10T21:52:05.408Z,99.90
2018-08-10T21:54:36.175Z,99.90
2018-08-10T21:57:06.886Z,99.90
2018-08-10T21:59:37.656Z,99.90
2018-08-10T22:02:11.550Z,99.90
2018-08-10T22:04:42.441Z,99.90
2018-08-10T22:07:13.489Z,99.90
2018-08-10T22:09:44.085Z,99.90
2018-08-10T22:12:18.953Z,99.90
2018-08-10T22:14:55.121Z,99.90
2018-08-10T22:17:31.219Z,99.90
2018-08-10T22:20:02.014Z,99.90
2018-08-10T22:22:32.643Z,99.90
2018-08-10T22:25:03.173Z,99.90
2018-08-10T22:27:34.279Z,99.90
2018-08-10T22:30:06.063Z,99.90
2018-08-10T22:32:36.768Z,99.90
2018-08-10T22:35:07.893Z,99.90
2018-08-10T22:37:38.744Z,99.90
2018-08-10T22:40:09.937Z,99.90
2018-08-10T22:42:40.627Z,99.90
2018-08-10T22:45:11.283Z,99.90
2018-08-10T22:47:41.844Z,99.90
2018-08-10T22:50:12.645Z,99.90
2018-08-10T22:52:43.393Z,99.90
2018-08-10T22:55:14.032Z,99.90
2018-08-10T22:57:45.316Z,99.90
2018-08-10T23:00:15.790Z,99.90
2018-08-10T23:02:46.883Z,99.90
2018-08-10T23:05:17.464Z,99.90
2018-08-10T23:07:48.467Z,99.90
2018-08-10T23:10:19.196Z,99.90
2018-08-10T23:12:49.931Z,99.90
2018-08-10T23:15:20.588Z,99.90
2018-08-10T23:17:51.312Z,99.90
2018-08-10T23:20:21.968Z,99.90
2018-08-10T23:22:53.691Z,99.90
2018-08-10T23:25:24.422Z,99.90
2018-08-10T23:27:55.002Z,99.90
2018-08-10T23:30:25.614Z,99.90
2018-08-10T23:32:56.124Z,99.90
2018-08-10T23:35:26.988Z,99.90
2018-08-10T23:37:57.738Z,99.90
2018-08-10T23:40:28.691Z,99.90
2018-08-10T23:42:59.142Z,99.90
2018-08-10T23:45:29.901Z,99.90
2018-08-10T23:48:00.590Z,99.90
2018-08-10T23:50:31.243Z,99.90
2018-08-10T23:53:02.346Z,99.90
2018-08-10T23:55:33.429Z,99.90
2018-08-10T23:58:04.777Z,99.90
